Time;durP1;ratioP1;P1;durP2;ratioP2;P2;SDS_P1;SDS_P2;PMS_P1;PMS_P2;Temp;Humidity;BMP_temperature;BMP_pressure;BME280_temperature;BME280_humidity;BME280_pressure;Samples;Min_cycle;Max_cycle;Signal;HPM_P1;HPM_P2
2022/09/20 00:01:31;;;;;;;2.80;0.40;;;10.90;90.80;;;;;;4882618;29;20100;-86
2022/09/20 00:04:00;;;;;;;1.10;0.40;;;11.00;90.80;;;;;;4884611;29;20440;-85
2022/09/20 00:06:29;;;;;;;1.02;0.22;;;11.00;90.80;;;;;;4868329;29;20071;-86
2022/09/20 00:08:58;;;;;;;2.65;0.40;;;10.90;90.70;;;;;;4883058;29;20045;-85
2022/09/20 00:11:28;;;;;;;2.05;0.30;;;10.90;90.80;;;;;;4867758;29;20046;-86
2022/09/20 00:13:57;;;;;;;1.48;0.35;;;10.90;90.80;;;;;;4882849;29;20487;-85
2022/09/20 00:16:27;;;;;;;2.17;0.30;;;10.90;90.90;;;;;;4849209;29;20049;-86
2022/09/20 00:18:57;;;;;;;1.50;0.35;;;10.80;90.90;;;;;;4865594;29;20044;-85
2022/09/20 00:21:27;;;;;;;3.65;0.60;;;10.80;91.00;;;;;;4866184;29;20045;-86
2022/09/20 00:23:56;;;;;;;0.95;0.30;;;10.90;91.00;;;;;;4894165;29;20048;-86
2022/09/20 00:26:25;;;;;;;2.15;0.40;;;11.00;90.90;;;;;;4883242;29;20139;-85
2022/09/20 00:28:52;;;;;;;1.60;0.30;;;11.00;91.20;;;;;;4891220;29;20049;-85
2022/09/20 00:31:19;;;;;;;4.72;0.65;;;11.10;90.80;;;;;;4880914;29;20044;-85
2022/09/20 00:36:32;;;;;;;1.15;0.40;;;11.20;90.80;;;;;;4883365;29;20114;-86
2022/09/20 00:39:01;;;;;;;3.03;0.65;;;11.30;90.80;;;;;;4876063;29;20056;-86
2022/09/20 00:41:30;;;;;;;2.47;0.95;;;11.30;90.70;;;;;;4897939;29;20076;-85
2022/09/20 00:43:57;;;;;;;4.47;0.77;;;11.30;90.70;;;;;;4872431;29;20539;-84
2022/09/20 00:46:36;;;;;;;1.73;0.40;;;11.30;90.70;;;;;;4899439;29;20188;-84
2022/09/20 00:49:19;;;;;;;4.32;0.40;;;11.30;90.70;;;;;;4898690;29;20079;-86
2022/09/20 00:51:55;;;;;;;1.83;0.30;;;11.30;90.70;;;;;;4896260;29;20600;-86
2022/09/20 00:54:24;;;;;;;1.95;0.30;;;11.30;90.80;;;;;;4893015;29;20051;-86
2022/09/20 00:56:52;;;;;;;3.88;0.30;;;11.30;90.70;;;;;;4881881;29;20045;-85
2022/09/20 00:59:29;;;;;;;2.85;0.25;;;11.40;90.70;;;;;;4863278;29;20045;-86
2022/09/20 01:02:11;;;;;;;3.92;0.40;;;11.40;90.70;;;;;;4885306;29;20139;-84
2022/09/20 01:04:41;;;;;;;3.75;0.40;;;11.50;90.70;;;;;;4859506;29;20064;-85
2022/09/20 01:07:12;;;;;;;1.63;0.28;;;11.60;90.60;;;;;;4886441;29;20155;-85
2022/09/20 01:09:41;;;;;;;4.03;0.35;;;11.60;90.50;;;;;;4885083;29;20052;-86
2022/09/20 01:12:13;;;;;;;1.80;0.32;;;11.70;90.50;;;;;;4888249;29;20104;-85
2022/09/20 01:14:42;;;;;;;0.43;0.10;;;11.70;90.40;;;;;;4874094;29;20119;-86
2022/09/20 01:17:11;;;;;;;2.15;0.20;;;11.70;90.70;;;;;;4856712;29;20041;-86
2022/09/20 01:20:18;;;;;;;1.70;0.17;;;11.70;90.40;;;;;;4879830;29;20072;-85
2022/09/20 01:23:00;;;;;;;4.57;0.30;;;11.80;90.40;;;;;;4907002;29;20076;-85
2022/09/20 01:25:35;;;;;;;1.47;0.20;;;11.80;90.40;;;;;;4899545;29;20471;-86
2022/09/20 01:28:03;;;;;;;2.80;0.20;;;11.80;90.40;;;;;;4891125;29;20521;-85
2022/09/20 01:30:48;;;;;;;1.92;0.30;;;11.80;90.40;;;;;;4893049;29;20143;-85
2022/09/20 01:33:27;;;;;;;3.88;0.30;;;11.80;90.40;;;;;;4878927;29;20055;-86
2022/09/20 01:35:59;;;;;;;3.28;0.22;;;11.80;90.40;;;;;;4882008;29;20059;-87
2022/09/20 01:39:05;;;;;;;1.38;0.10;;;11.80;90.40;;;;;;4882080;29;20064;-84
2022/09/20 01:41:44;;;;;;;0.85;0.10;;;11.90;90.40;;;;;;4894906;29;20044;-87
2022/09/20 01:44:39;;;;;;;0.63;0.10;;;11.80;90.40;;;;;;4903606;29;20091;-86
2022/09/20 01:47:23;;;;;;;0.90;0.20;;;11.90;90.40;;;;;;4888790;29;20477;-86
2022/09/20 01:50:12;;;;;;;1.10;0.20;;;11.80;90.30;;;;;;4883054;29;20087;-86
2022/09/20 01:53:29;;;;;;;1.63;0.50;;;11.90;90.30;;;;;;4881259;29;20048;-85
2022/09/20 01:56:21;;;;;;;3.58;0.35;;;11.90;90.30;;;;;;4862463;29;20053;-84
2022/09/20 01:58:57;;;;;;;0.50;0.20;;;11.90;90.30;;;;;;4882217;29;20040;-82
2022/09/20 02:01:52;;;;;;;0.50;0.13;;;11.80;90.30;;;;;;4863027;29;20382;-85
2022/09/20 02:04:23;;;;;;;2.00;0.22;;;11.80;90.30;;;;;;4863553;29;20136;-84
2022/09/20 02:07:08;;;;;;;0.45;0.20;;;11.80;90.40;;;;;;4870405;29;20523;-84
2022/09/20 02:09:41;;;;;;;2.80;0.20;;;11.80;90.40;;;;;;4859218;29;20049;-84
2022/09/20 02:12:27;;;;;;;1.08;0.20;;;11.80;90.40;;;;;;4858244;29;20045;-85
2022/09/20 02:15:14;;;;;;;1.40;0.20;;;11.70;90.40;;;;;;4852950;29;20113;-84
2022/09/20 02:18:00;;;;;;;0.88;0.20;;;11.70;90.50;;;;;;4847056;29;20206;-85
2022/09/20 02:21:01;;;;;;;1.73;0.15;;;11.70;90.50;;;;;;4865239;29;20057;-84
2022/09/20 02:23:43;;;;;;;1.85;0.10;;;11.70;90.60;;;;;;4856858;29;20059;-84
2022/09/20 02:26:31;;;;;;;0.28;0.08;;;11.70;90.60;;;;;;4877411;29;20108;-83
2022/09/20 02:29:26;;;;;;;1.20;0.10;;;11.60;90.70;;;;;;4854615;29;20128;-83
2022/09/20 02:32:02;;;;;;;2.03;0.30;;;11.60;90.70;;;;;;4843464;29;20067;-84
2022/09/20 02:35:00;;;;;;;1.30;0.10;;;11.60;90.70;;;;;;4864740;29;20490;-84
2022/09/20 02:38:05;;;;;;;1.25;0.10;;;11.70;90.70;;;;;;4854466;29;20123;-83
2022/09/20 02:40:37;;;;;;;2.45;0.20;;;11.70;90.70;;;;;;4887410;29;20045;-85
2022/09/20 02:43:43;;;;;;;1.45;0.20;;;11.60;90.70;;;;;;4861972;29;21287;-84
2022/09/20 02:46:29;;;;;;;1.27;0.10;;;11.70;90.70;;;;;;4866702;29;20053;-84
2022/09/20 02:49:06;;;;;;;0.32;0.10;;;11.70;90.70;;;;;;4828490;29;20061;-84
2022/09/20 02:51:41;;;;;;;0.28;0.10;;;11.70;90.70;;;;;;4870790;29;20056;-84
2022/09/20 02:54:35;;;;;;;3.42;0.55;;;11.70;90.70;;;;;;4877303;29;20041;-83
2022/09/20 02:57:35;;;;;;;2.83;0.40;;;11.80;90.70;;;;;;4881406;29;20049;-84
2022/09/20 03:00:09;;;;;;;2.35;0.30;;;11.80;90.70;;;;;;4855981;29;20069;-85
2022/09/20 03:02:36;;;;;;;2.17;0.30;;;11.80;90.60;;;;;;4864924;29;20083;-84
2022/09/20 03:05:39;;;;;;;2.97;0.40;;;11.80;90.60;;;;;;4849819;29;20056;-84
2022/09/20 03:08:34;;;;;;;2.70;0.40;;;11.80;90.60;;;;;;4851873;29;20089;-85
2022/09/20 03:11:04;;;;;;;2.50;0.30;;;11.80;90.60;;;;;;4878503;29;20053;-85
2022/09/20 03:14:04;;;;;;;0.65;0.10;;;11.80;90.60;;;;;;4878523;29;20048;-84
2022/09/20 03:16:53;;;;;;;1.63;0.30;;;11.80;90.60;;;;;;4845314;29;20128;-84
2022/09/20 03:19:38;;;;;;;1.70;0.30;;;11.80;90.60;;;;;;4877563;29;20046;-85
2022/09/20 03:23:08;;;;;;;1.58;0.30;;;11.80;90.60;;;;;;4871519;29;20069;-84
2022/09/20 03:25:47;;;;;;;1.33;0.22;;;11.80;90.60;;;;;;4803676;29;20046;-84
2022/09/20 03:28:36;;;;;;;0.73;0.20;;;11.80;90.70;;;;;;4813378;29;20167;-85
2022/09/20 03:31:28;;;;;;;2.58;0.50;;;11.70;90.70;;;;;;4855940;29;20140;-84
2022/09/20 03:34:27;;;;;;;2.75;0.30;;;11.70;90.70;;;;;;4873135;29;20443;-84
2022/09/20 03:37:09;;;;;;;1.35;0.20;;;11.70;90.80;;;;;;4840931;29;20101;-84
2022/09/20 03:39:55;;;;;;;1.08;0.20;;;11.60;90.80;;;;;;4853268;29;20049;-84
2022/09/20 03:42:25;;;;;;;4.55;0.40;;;11.60;90.90;;;;;;4879553;29;20109;-85
2022/09/20 03:45:17;;;;;;;0.85;0.20;;;11.60;90.90;;;;;;4867406;29;20417;-83
2022/09/20 03:48:05;;;;;;;2.58;0.30;;;11.60;90.90;;;;;;4871168;29;20137;-84
2022/09/20 03:50:39;;;;;;;1.75;0.30;;;11.60;90.90;;;;;;4853024;29;20067;-85
2022/09/20 03:53:09;;;;;;;0.73;0.32;;;11.60;91.00;;;;;;4879939;29;20068;-85
2022/09/20 03:56:06;;;;;;;6.05;1.05;;;11.60;90.90;;;;;;4876915;29;20073;-85
2022/09/20 03:58:43;;;;;;;4.97;0.77;;;11.70;90.90;;;;;;4858296;29;20045;-83
2022/09/20 04:01:39;;;;;;;1.15;0.50;;;11.60;91.00;;;;;;4867056;29;20060;-84
2022/09/20 04:04:41;;;;;;;1.85;0.40;;;11.70;91.00;;;;;;4879826;29;20489;-84
2022/09/20 04:07:30;;;;;;;1.40;0.30;;;11.70;90.90;;;;;;4855003;29;20131;-84
2022/09/20 04:10:15;;;;;;;1.08;0.40;;;11.70;91.00;;;;;;4882679;29;20056;-85
2022/09/20 04:13:04;;;;;;;1.83;0.30;;;11.70;91.00;;;;;;4896490;29;20541;-84
2022/09/20 04:15:36;;;;;;;2.00;0.43;;;11.60;91.00;;;;;;4884768;29;20139;-83
2022/09/20 04:18:30;;;;;;;2.47;0.35;;;11.60;91.10;;;;;;4873121;29;20056;-84
2022/09/20 04:21:11;;;;;;;2.50;0.38;;;11.60;91.10;;;;;;4894002;29;20048;-84
2022/09/20 04:24:01;;;;;;;2.08;0.30;;;11.50;91.20;;;;;;4876390;29;20057;-84
2022/09/20 04:26:33;;;;;;;2.00;0.30;;;11.40;91.20;;;;;;4884152;29;20115;-84
2022/09/20 04:29:15;;;;;;;0.95;0.30;;;11.30;91.40;;;;;;4882845;29;20053;-83
2022/09/20 04:31:59;;;;;;;2.78;0.20;;;11.30;91.50;;;;;;4863711;29;20068;-84
2022/09/20 04:37:32;;;;;;;1.50;0.30;;;11.10;91.70;;;;;;4879266;29;20498;-85
2022/09/20 04:40:29;;;;;;;2.47;0.50;;;11.10;91.70;;;;;;4879824;29;20439;-84
2022/09/20 04:43:23;;;;;;;0.73;0.20;;;11.00;91.80;;;;;;4884681;29;20469;-84
2022/09/20 04:45:59;;;;;;;0.75;0.10;;;10.90;91.80;;;;;;4906178;29;20045;-84
2022/09/20 04:49:01;;;;;;;0.75;0.30;;;10.90;91.90;;;;;;4881907;29;20162;-85
2022/09/20 04:51:28;;;;;;;0.77;0.20;;;10.90;91.90;;;;;;4892663;29;20082;-83
2022/09/20 04:54:49;;;;;;;0.30;0.10;;;10.90;91.90;;;;;;4866378;29;20048;-84
2022/09/20 04:57:40;;;;;;;1.35;0.20;;;11.00;91.80;;;;;;4855388;29;20052;-84
2022/09/20 05:00:21;;;;;;;0.73;0.20;;;11.00;91.70;;;;;;4881656;29;20500;-84
2022/09/20 05:03:21;;;;;;;2.92;0.20;;;11.10;91.70;;;;;;4881874;29;20053;-84
2022/09/20 05:06:16;;;;;;;1.75;0.20;;;11.10;91.60;;;;;;4881585;29;20068;-85
2022/09/20 05:09:12;;;;;;;1.65;0.35;;;11.20;91.60;;;;;;4888727;29;20111;-84
2022/09/20 05:12:03;;;;;;;1.38;0.50;;;11.30;91.60;;;;;;4875601;29;20067;-84
2022/09/20 05:14:46;;;;;;;1.92;0.30;;;11.30;91.50;;;;;;4886871;29;20464;-84
2022/09/20 05:17:19;;;;;;;1.67;0.20;;;11.40;91.50;;;;;;4888912;29;20585;-84
2022/09/20 05:20:23;;;;;;;0.52;0.20;;;11.40;91.40;;;;;;4882085;29;20103;-84
2022/09/20 05:23:09;;;;;;;0.93;0.20;;;11.40;91.40;;;;;;4848328;29;20403;-83
2022/09/20 05:25:57;;;;;;;2.45;0.30;;;11.40;91.40;;;;;;4883593;29;20064;-84
2022/09/20 05:28:53;;;;;;;0.68;0.20;;;11.50;91.40;;;;;;4871155;29;20347;-85
2022/09/20 05:31:53;;;;;;;1.55;0.60;;;11.50;91.40;;;;;;4887062;29;20049;-85
2022/09/20 05:35:04;;;;;;;2.08;0.30;;;11.50;91.40;;;;;;4872838;29;20056;-88
2022/09/20 05:37:58;;;;;;;1.60;0.30;;;11.60;91.40;;;;;;4875019;29;20080;-88
2022/09/20 05:40:53;;;;;;;2.90;0.85;;;11.60;91.30;;;;;;4868313;29;20067;-87
2022/09/20 05:43:30;;;;;;;6.30;0.70;;;11.60;91.30;;;;;;4898827;29;20041;-87
2022/09/20 05:46:45;;;;;;;1.73;0.30;;;11.60;91.30;;;;;;4885256;29;20055;-84
2022/09/20 05:49:45;;;;;;;0.95;0.30;;;11.60;91.30;;;;;;4861257;29;20085;-83
2022/09/20 05:52:35;;;;;;;1.67;0.30;;;11.60;91.30;;;;;;4896891;29;20081;-84
2022/09/20 05:55:08;;;;;;;5.20;0.43;;;11.50;91.40;;;;;;4883075;29;20048;-85
2022/09/20 05:57:41;;;;;;;1.40;0.30;;;11.50;91.50;;;;;;4880289;29;20056;-84
2022/09/20 06:00:21;;;;;;;0.40;0.30;;;11.40;91.50;;;;;;4900259;29;20052;-84
2022/09/20 06:02:54;;;;;;;2.95;0.20;;;11.40;91.60;;;;;;4884890;29;20421;-84
2022/09/20 06:05:39;;;;;;;1.45;0.20;;;11.30;91.60;;;;;;4899570;29;20052;-85
2022/09/20 06:08:24;;;;;;;2.60;0.30;;;11.30;91.60;;;;;;4899552;29;20067;-84
2022/09/20 06:11:16;;;;;;;1.70;0.30;;;11.30;91.60;;;;;;4880548;29;20048;-84
2022/09/20 06:14:02;;;;;;;3.25;0.20;;;11.30;91.60;;;;;;4889099;29;20052;-84
2022/09/20 06:16:53;;;;;;;1.85;0.20;;;11.20;91.70;;;;;;4871987;29;20040;-84
2022/09/20 06:19:36;;;;;;;0.95;0.20;;;11.30;91.70;;;;;;4879621;29;20048;-83
2022/09/20 06:22:40;;;;;;;2.95;0.30;;;11.30;91.70;;;;;;4870452;29;20085;-84
2022/09/20 06:25:07;;;;;;;1.55;0.40;;;11.40;91.60;;;;;;4865663;29;20056;-85
2022/09/20 06:27:40;;;;;;;1.15;0.52;;;11.40;91.50;;;;;;4904433;29;20056;-84
2022/09/20 06:30:17;;;;;;;1.67;0.38;;;11.50;91.50;;;;;;4874045;29;20064;-84
2022/09/20 06:33:04;;;;;;;1.52;0.22;;;11.60;91.40;;;;;;4883363;29;20052;-84
2022/09/20 06:35:43;;;;;;;1.42;0.30;;;11.80;91.40;;;;;;4862134;29;20052;-84
2022/09/20 06:41:29;;;;;;;1.88;0.30;;;12.00;91.10;;;;;;4883771;29;20040;-83
2022/09/20 06:43:59;;;;;;;1.30;0.30;;;12.10;91.00;;;;;;4881582;29;20057;-84
2022/09/20 06:46:28;;;;;;;3.17;0.50;;;12.20;90.90;;;;;;4886489;29;20105;-85
2022/09/20 06:48:56;;;;;;;0.95;0.30;;;12.30;90.80;;;;;;4869544;29;20155;-84
2022/09/20 06:51:26;;;;;;;2.63;0.30;;;12.40;90.80;;;;;;4886672;29;20067;-83
2022/09/20 06:53:55;;;;;;;1.27;0.40;;;12.50;90.70;;;;;;4880506;29;20466;-84
2022/09/20 06:56:29;;;;;;;1.63;0.30;;;12.50;90.60;;;;;;4884396;29;20413;-85
2022/09/20 06:58:57;;;;;;;0.68;0.20;;;12.60;90.60;;;;;;4899429;29;20048;-84
2022/09/20 07:01:24;;;;;;;4.68;0.30;;;12.60;90.50;;;;;;4868431;29;20056;-85
2022/09/20 07:03:57;;;;;;;1.67;0.25;;;12.60;90.50;;;;;;4869211;29;20131;-84
2022/09/20 07:06:25;;;;;;;4.95;0.55;;;12.70;90.50;;;;;;4886875;29;20135;-84
2022/09/20 07:08:52;;;;;;;2.67;0.80;;;12.70;90.40;;;;;;4899035;29;20056;-84
2022/09/20 07:11:22;;;;;;;2.13;0.43;;;12.80;90.30;;;;;;4886499;29;20044;-83
2022/09/20 07:13:52;;;;;;;2.15;0.50;;;12.70;90.20;;;;;;4883881;29;20056;-83
2022/09/20 07:16:20;;;;;;;2.30;0.60;;;12.70;90.20;;;;;;4885740;29;20051;-81
2022/09/20 07:18:48;;;;;;;3.00;0.50;;;12.40;90.30;;;;;;4899067;29;20498;-82
2022/09/20 07:21:17;;;;;;;0.82;0.40;;;12.10;90.70;;;;;;4855035;29;20091;-83
2022/09/20 07:23:45;;;;;;;3.65;0.93;;;12.00;91.00;;;;;;4876327;29;20799;-82
2022/09/20 07:26:21;;;;;;;1.23;0.35;;;11.80;91.20;;;;;;4895970;29;20124;-83
2022/09/20 07:28:49;;;;;;;1.67;0.40;;;11.70;91.40;;;;;;4890405;29;20088;-85
2022/09/20 07:31:18;;;;;;;1.13;0.32;;;11.70;91.50;;;;;;4856518;29;20048;-85
2022/09/20 07:33:45;;;;;;;1.60;0.30;;;11.70;91.50;;;;;;4884394;29;20051;-84
2022/09/20 07:36:12;;;;;;;1.45;0.30;;;11.70;91.50;;;;;;4877021;29;20050;-84
2022/09/20 07:38:40;;;;;;;2.03;0.35;;;11.70;91.50;;;;;;4871787;29;20170;-85
2022/09/20 07:41:08;;;;;;;1.88;0.47;;;11.70;91.80;;;;;;4882949;29;20112;-85
2022/09/20 07:43:35;;;;;;;2.45;0.40;;;11.70;91.50;;;;;;4857886;29;20052;-86
2022/09/20 07:46:02;;;;;;;1.27;0.30;;;11.80;91.50;;;;;;4855707;29;20051;-84
2022/09/20 07:48:32;;;;;;;1.52;0.30;;;11.90;91.40;;;;;;4861505;29;20120;-85
2022/09/20 07:51:09;;;;;;;3.15;0.40;;;12.10;91.40;;;;;;4886308;29;20100;-84
2022/09/20 07:53:36;;;;;;;2.30;0.20;;;12.10;91.30;;;;;;4882328;29;20438;-85
2022/09/20 07:56:14;;;;;;;1.25;0.20;;;12.10;91.40;;;;;;4868061;29;20461;-86
2022/09/20 07:58:42;;;;;;;2.42;0.30;;;12.10;91.40;;;;;;4893243;29;20549;-86
2022/09/20 08:01:12;;;;;;;2.83;0.30;;;12.00;91.40;;;;;;4855686;29;20482;-85
2022/09/20 08:03:39;;;;;;;1.38;0.40;;;12.00;91.50;;;;;;4880180;29;20061;-85
2022/09/20 08:06:08;;;;;;;1.55;0.30;;;12.00;91.50;;;;;;4886562;29;20048;-85
2022/09/20 08:08:38;;;;;;;2.10;0.40;;;12.00;91.60;;;;;;4886028;29;20230;-85
2022/09/20 08:11:17;;;;;;;1.10;0.45;;;12.00;91.70;;;;;;4874768;29;20469;-86
2022/09/20 08:13:53;;;;;;;1.25;0.45;;;12.00;91.80;;;;;;4905375;29;20056;-86
2022/09/20 08:16:41;;;;;;;0.50;0.20;;;12.00;91.90;;;;;;4866312;29;20049;-86
2022/09/20 08:19:20;;;;;;;2.35;0.30;;;12.10;91.80;;;;;;4870909;29;20052;-86
2022/09/20 08:21:49;;;;;;;2.90;0.40;;;12.10;91.70;;;;;;4875328;29;20048;-85
2022/09/20 08:24:16;;;;;;;1.33;0.47;;;12.20;91.70;;;;;;4878498;29;20051;-86
2022/09/20 08:26:43;;;;;;;2.08;0.40;;;12.30;91.80;;;;;;4883250;29;20136;-83
2022/09/20 08:29:12;;;;;;;2.42;0.40;;;12.30;91.70;;;;;;4872467;29;20092;-84
2022/09/20 08:31:41;;;;;;;1.60;0.50;;;12.40;91.60;;;;;;4869118;29;20049;-83
2022/09/20 08:34:11;;;;;;;2.05;0.40;;;12.60;91.60;;;;;;4843846;29;20422;-83
2022/09/20 08:36:41;;;;;;;1.67;0.30;;;12.60;91.50;;;;;;4882296;29;20465;-83
2022/09/20 08:39:08;;;;;;;1.88;0.40;;;12.70;91.40;;;;;;4894561;29;20869;-84
2022/09/20 08:42:11;;;;;;;2.78;0.40;;;12.90;91.40;;;;;;4881404;29;20401;-84
2022/09/20 08:45:03;;;;;;;1.15;0.32;;;13.10;91.20;;;;;;4877056;29;20044;-83
2022/09/20 08:47:34;;;;;;;0.95;0.30;;;13.40;91.00;;;;;;4881974;29;20045;-83
2022/09/20 08:50:06;;;;;;;1.85;0.30;;;13.50;90.80;;;;;;4881893;29;20048;-84
2022/09/20 08:52:38;;;;;;;1.85;0.30;;;13.70;90.60;;;;;;4874083;29;20065;-84
2022/09/20 08:55:15;;;;;;;1.98;0.40;;;13.80;90.40;;;;;;4897664;29;20049;-84
2022/09/20 08:57:52;;;;;;;3.65;0.60;;;13.90;90.30;;;;;;4876776;29;20049;-84
2022/09/20 09:00:26;;;;;;;1.95;0.30;;;14.00;90.10;;;;;;4877524;29;20391;-85
2022/09/20 09:02:59;;;;;;;2.13;0.40;;;14.10;90.00;;;;;;4893753;29;20080;-84
2022/09/20 09:05:32;;;;;;;;;;;14.20;90.00;;;;;;4897487;29;20084;-85
2022/09/20 09:08:00;;;;;;;;;;;14.30;90.00;;;;;;4894315;29;20265;-84
2022/09/20 09:10:35;;;;;;;1.40;0.20;;;14.40;89.90;;;;;;4880371;29;19923;-84
2022/09/20 09:13:22;;;;;;;1.25;0.40;;;14.60;89.80;;;;;;4870604;29;20128;-84
2022/09/20 09:16:01;;;;;;;0.90;0.35;;;14.70;89.50;;;;;;4909835;29;20051;-84
2022/09/20 09:18:34;;;;;;;1.17;0.30;;;14.70;89.10;;;;;;4898093;29;20510;-83
2022/09/20 09:21:03;;;;;;;1.80;0.68;;;14.60;88.90;;;;;;4865537;29;20512;-85
2022/09/20 09:23:40;;;;;;;2.38;0.22;;;14.70;89.10;;;;;;4883523;29;20097;-85
2022/09/20 09:26:16;;;;;;;1.25;0.30;;;14.70;88.60;;;;;;4869426;29;20056;-84
2022/09/20 09:28:43;;;;;;;1.48;0.20;;;14.70;88.70;;;;;;4865548;29;20151;-84
2022/09/20 09:31:24;;;;;;;0.95;0.30;;;14.60;88.40;;;;;;4866067;29;20143;-85
2022/09/20 09:33:51;;;;;;;0.95;0.20;;;14.60;88.40;;;;;;4859981;29;20060;-85
2022/09/20 09:36:24;;;;;;;2.30;0.50;;;14.70;88.30;;;;;;4877952;29;20072;-85
2022/09/20 09:39:15;;;;;;;2.20;0.30;;;14.70;88.20;;;;;;4862866;29;20060;-85
2022/09/20 09:41:43;;;;;;;0.60;0.20;;;14.80;88.10;;;;;;4875820;29;20557;-85
2022/09/20 09:44:21;;;;;;;3.05;0.25;;;14.90;87.90;;;;;;4862850;29;20518;-85
2022/09/20 09:46:49;;;;;;;0.47;0.10;;;14.90;87.50;;;;;;4862601;29;20478;-85
2022/09/20 09:49:34;;;;;;;0.77;0.10;;;15.00;87.40;;;;;;4881048;29;20042;-84
2022/09/20 09:52:15;;;;;;;2.05;0.30;;;15.00;86.70;;;;;;4894144;29;20429;-85
2022/09/20 09:54:47;;;;;;;1.38;0.50;;;15.10;86.60;;;;;;4886148;29;20576;-86
2022/09/20 09:57:27;;;;;;;4.70;0.40;;;15.20;86.30;;;;;;4899444;29;20055;-86
2022/09/20 10:00:12;;;;;;;1.77;0.20;;;15.30;86.30;;;;;;4896557;29;20147;-85
2022/09/20 10:03:18;;;;;;;1.13;0.17;;;15.30;85.90;;;;;;4899538;29;20086;-85
2022/09/20 10:06:24;;;;;;;2.72;0.35;;;15.20;86.10;;;;;;4896850;29;20128;-85
2022/09/20 10:09:20;;;;;;;0.20;0.10;;;15.20;85.70;;;;;;4886658;29;20053;-83
2022/09/20 10:12:19;;;;;;;1.50;0.40;;;15.10;85.90;;;;;;4887477;29;20057;-83
2022/09/20 10:15:12;;;;;;;1.05;0.22;;;15.10;85.70;;;;;;4879263;29;20052;-85
2022/09/20 10:18:09;;;;;;;1.85;0.20;;;15.10;85.10;;;;;;4903495;29;20142;-85
2022/09/20 10:20:56;;;;;;;3.70;0.60;;;15.40;84.20;;;;;;4903159;29;20041;-86
2022/09/20 10:23:45;;;;;;;3.63;0.40;;;15.70;83.20;;;;;;4880038;29;20044;-82
2022/09/20 10:26:50;;;;;;;1.75;0.25;;;15.80;82.70;;;;;;4903793;29;20116;-84
2022/09/20 10:29:38;;;;;;;0.70;0.10;;;16.00;82.20;;;;;;4868655;29;20065;-85
2022/09/20 10:32:32;;;;;;;2.03;0.30;;;16.10;82.00;;;;;;4896734;29;20059;-84
2022/09/20 10:35:21;;;;;;;2.30;0.20;;;16.20;81.00;;;;;;4888591;29;20052;-82
2022/09/20 10:38:09;;;;;;;2.85;0.30;;;16.20;80.70;;;;;;4868569;29;20074;-85
2022/09/20 10:43:40;;;;;;;1.75;0.20;;;16.30;79.30;;;;;;4912606;29;20041;-83
2022/09/20 10:46:33;;;;;;;0.55;0.10;;;16.40;79.60;;;;;;4902557;29;20761;-83
2022/09/20 10:49:33;;;;;;;1.20;0.10;;;16.60;79.20;;;;;;4912463;29;20116;-83
2022/09/20 10:52:19;;;;;;;1.10;0.32;;;16.60;77.80;;;;;;4914551;29;20072;-85
2022/09/20 10:54:49;;;;;;;1.33;0.10;;;16.70;77.40;;;;;;4889900;29;20120;-83
2022/09/20 10:57:41;;;;;;;0.75;0.10;;;16.70;77.70;;;;;;4899754;29;20044;-82
2022/09/20 11:00:25;;;;;;;2.97;0.20;;;16.90;77.50;;;;;;4880611;29;20048;-83
2022/09/20 11:03:14;;;;;;;1.98;0.20;;;16.90;75.90;;;;;;4889612;29;20076;-82
2022/09/20 11:06:04;;;;;;;1.88;0.25;;;16.90;74.70;;;;;;4898146;29;20051;-82
2022/09/20 11:08:37;;;;;;;1.60;0.25;;;16.90;75.20;;;;;;4893780;29;20052;-82
2022/09/20 11:11:15;;;;;;;1.27;0.10;;;17.00;75.30;;;;;;4878740;29;20056;-83
2022/09/20 11:14:09;;;;;;;0.40;0.00;;;17.00;75.50;;;;;;4897888;29;20066;-83
2022/09/20 11:16:40;;;;;;;1.35;0.20;;;17.10;75.30;;;;;;4869665;29;20053;-84
2022/09/20 11:19:26;;;;;;;3.00;0.20;;;17.10;75.20;;;;;;4895390;29;20044;-83
2022/09/20 11:22:08;;;;;;;1.42;0.25;;;17.10;74.80;;;;;;4893315;29;20088;-82
2022/09/20 11:24:37;;;;;;;3.97;0.30;;;17.20;74.70;;;;;;4880743;29;20458;-83
2022/09/20 11:27:13;;;;;;;1.38;0.20;;;17.20;75.20;;;;;;4900605;29;20052;-85
2022/09/20 11:29:49;;;;;;;1.80;0.25;;;17.30;75.00;;;;;;4900084;29;20673;-82
2022/09/20 11:32:48;;;;;;;1.48;0.10;;;17.30;74.70;;;;;;4870712;29;20140;-82
2022/09/20 11:35:43;;;;;;;0.75;0.10;;;17.30;74.00;;;;;;4880536;29;20516;-85
2022/09/20 11:38:31;;;;;;;2.25;0.15;;;17.30;74.60;;;;;;4890408;29;20116;-84
2022/09/20 11:41:12;;;;;;;3.00;0.45;;;17.20;74.40;;;;;;4883439;29;20033;-83
2022/09/20 11:43:44;;;;;;;2.80;0.20;;;17.10;74.50;;;;;;4861805;29;20048;-84
2022/09/20 11:46:21;;;;;;;2.53;0.10;;;17.00;74.70;;;;;;4917877;29;20044;-84
2022/09/20 11:49:16;;;;;;;0.93;0.10;;;17.00;75.00;;;;;;4885370;29;20052;-84
2022/09/20 11:52:06;;;;;;;2.20;0.30;;;17.00;74.70;;;;;;4875270;29;20052;-85
2022/09/20 11:54:36;;;;;;;1.65;0.20;;;16.80;73.70;;;;;;4874359;29;20092;-84
2022/09/20 11:57:04;;;;;;;1.60;0.20;;;16.70;73.10;;;;;;4890119;29;20457;-84
2022/09/20 11:59:41;;;;;;;3.97;0.30;;;16.80;73.30;;;;;;4898558;29;20053;-84
2022/09/20 12:02:35;;;;;;;0.38;0.13;;;17.00;72.60;;;;;;4872408;29;20572;-84
2022/09/20 12:05:05;;;;;;;1.50;0.20;;;17.20;72.30;;;;;;4872209;29;20059;-82
2022/09/20 12:07:38;;;;;;;2.30;0.30;;;17.20;71.60;;;;;;4871403;29;20053;-83
2022/09/20 12:10:27;;;;;;;3.38;0.50;;;17.20;71.40;;;;;;4886692;29;20048;-84
2022/09/20 12:13:23;;;;;;;1.77;0.20;;;17.20;71.90;;;;;;4895059;29;20041;-85
2022/09/20 12:16:11;;;;;;;0.75;0.20;;;17.20;72.20;;;;;;4901623;29;20048;-83
2022/09/20 12:18:54;;;;;;;0.60;0.20;;;17.00;72.20;;;;;;4906870;29;20044;-86
2022/09/20 12:21:21;;;;;;;1.08;0.13;;;16.90;72.40;;;;;;4882914;29;20049;-84
2022/09/20 12:23:51;;;;;;;1.38;0.10;;;16.80;72.70;;;;;;4874877;29;20044;-84
2022/09/20 12:26:21;;;;;;;5.80;0.30;;;16.90;72.70;;;;;;4897362;29;20052;-84
2022/09/20 12:28:50;;;;;;;2.53;0.10;;;17.00;72.40;;;;;;4888751;29;20087;-84
2022/09/20 12:31:17;;;;;;;1.05;0.10;;;17.20;72.50;;;;;;4870050;29;20086;-83
2022/09/20 12:34:14;;;;;;;1.80;0.20;;;17.20;71.20;;;;;;4885268;29;20055;-84
2022/09/20 12:36:53;;;;;;;1.23;0.20;;;17.20;70.80;;;;;;4910359;29;20131;-85
2022/09/20 12:39:37;;;;;;;1.40;0.20;;;17.00;71.00;;;;;;4897712;29;20048;-83
2022/09/20 12:42:10;;;;;;;1.13;0.10;;;16.90;71.40;;;;;;4879570;29;20063;-84
2022/09/20 12:44:47;;;;;;;3.30;0.30;;;16.70;71.20;;;;;;4895139;29;20464;-83
2022/09/20 12:47:21;;;;;;;1.83;0.20;;;16.60;71.10;;;;;;4873064;29;20143;-82
2022/09/20 12:55:56;;;;;;;2.25;0.40;;;16.60;70.40;;;;;;4826335;29;20464;-83
2022/09/20 12:58:34;;;;;;;2.85;0.40;;;16.70;70.50;;;;;;4889695;29;20045;-83
2022/09/20 13:01:04;;;;;;;1.02;0.20;;;16.90;69.40;;;;;;4881509;29;20108;-82
2022/09/20 13:03:45;;;;;;;2.88;0.10;;;17.00;69.30;;;;;;4882390;29;20072;-83
2022/09/20 13:06:23;;;;;;;2.45;0.30;;;17.10;69.50;;;;;;4848220;29;20136;-82
2022/09/20 13:09:12;;;;;;;1.33;0.30;;;17.20;68.80;;;;;;4888721;29;20059;-84
2022/09/20 13:11:54;;;;;;;3.53;0.20;;;17.30;69.10;;;;;;4891680;29;20064;-84
2022/09/20 13:14:27;;;;;;;1.05;0.10;;;17.40;69.20;;;;;;4878600;29;20569;-83
2022/09/20 13:17:21;;;;;;;0.60;0.10;;;17.40;69.30;;;;;;4870649;29;20049;-83
2022/09/20 13:19:51;;;;;;;1.65;0.20;;;17.50;69.10;;;;;;4870359;29;20065;-85
2022/09/20 13:22:48;;;;;;;2.67;0.30;;;17.50;69.20;;;;;;4917484;29;20044;-83
2022/09/20 13:25:19;;;;;;;2.03;0.10;;;17.40;69.30;;;;;;4881055;29;20416;-81
2022/09/20 13:28:07;;;;;;;1.45;0.38;;;17.30;69.40;;;;;;4884566;29;20091;-83
2022/09/20 13:30:34;;;;;;;2.33;0.30;;;17.20;69.20;;;;;;4905651;29;20053;-79
2022/09/20 13:33:22;;;;;;;0.52;0.10;;;17.00;69.50;;;;;;4878787;29;20107;-84
2022/09/20 13:35:57;;;;;;;0.95;0.20;;;16.90;69.20;;;;;;4896762;29;20135;-83
2022/09/20 13:38:28;;;;;;;1.13;0.25;;;16.60;69.00;;;;;;4899874;29;20072;-83
2022/09/20 13:41:06;;;;;;;2.63;0.20;;;16.50;69.80;;;;;;4896555;29;20144;-82
2022/09/20 13:43:40;;;;;;;1.88;0.20;;;16.40;69.50;;;;;;4881450;29;20462;-84
2022/09/20 13:46:23;;;;;;;1.85;0.20;;;16.30;70.00;;;;;;4887806;29;20056;-84
2022/09/20 13:49:13;;;;;;;0.93;0.10;;;16.40;70.30;;;;;;4892502;29;20048;-84
2022/09/20 13:51:41;;;;;;;1.63;0.10;;;16.40;70.40;;;;;;4892242;29;20093;-84
2022/09/20 13:54:26;;;;;;;2.42;0.10;;;16.40;70.60;;;;;;4830570;29;20060;-84
2022/09/20 13:56:57;;;;;;;1.00;0.13;;;16.50;70.80;;;;;;4879998;29;20049;-84
2022/09/20 13:59:29;;;;;;;0.93;0.32;;;16.60;70.90;;;;;;4872567;29;20089;-85
2022/09/20 14:01:57;;;;;;;0.98;0.10;;;16.60;70.80;;;;;;4864644;29;20139;-84
2022/09/20 14:04:27;;;;;;;1.65;0.30;;;16.70;71.10;;;;;;4839116;29;20087;-85
2022/09/20 14:06:57;;;;;;;3.28;0.20;;;16.70;71.10;;;;;;4853709;29;20056;-85
2022/09/20 14:09:34;;;;;;;0.80;0.20;;;16.80;71.10;;;;;;4859115;29;20049;-84
2022/09/20 14:12:04;;;;;;;0.75;0.10;;;16.80;71.20;;;;;;4876309;29;20108;-85
2022/09/20 14:14:35;;;;;;;0.88;0.10;;;16.90;71.30;;;;;;4874943;29;20060;-85